createdAt,value
2019-05-07T00:00:22.056Z,65.32
2019-05-07T00:01:02.819Z,65.23
2019-05-07T00:01:42.281Z,65.42
2019-05-07T00:02:22.565Z,64.94
2019-05-07T00:03:03.237Z,64.75
2019-05-07T00:03:43.142Z,64.94
2019-05-07T00:04:23.761Z,64.94
2019-05-07T00:05:04.316Z,65.32
2019-05-07T00:05:44.902Z,64.94
2019-05-07T00:06:25.465Z,64.75
2019-05-07T00:07:06.099Z,65.03
2019-05-07T00:07:46.703Z,64.75
2019-05-07T00:08:27.296Z,64.75
2019-05-07T00:09:07.874Z,65.32
2019-05-07T00:09:48.463Z,65.42
2019-05-07T00:10:29.049Z,65.32
2019-05-07T00:11:09.616Z,65.13
2019-05-07T00:11:50.224Z,65.32
2019-05-07T00:12:32.277Z,65.03
2019-05-07T00:13:12.836Z,65.13
2019-05-07T00:13:52.374Z,65.51
2019-05-07T00:14:34.491Z,65.51
2019-05-07T00:15:13.270Z,65.7
2019-05-07T00:15:53.866Z,65.61
2019-05-07T00:16:34.448Z,65.7
2019-05-07T00:17:15.014Z,66.08
2019-05-07T00:17:55.619Z,65.51
2019-05-07T00:18:36.174Z,65.89
2019-05-07T00:19:16.757Z,65.51
2019-05-07T00:19:57.314Z,65.99
2019-05-07T00:20:37.875Z,65.99
2019-05-07T00:21:18.424Z,66.37
2019-05-07T00:21:58.981Z,66.56
2019-05-07T00:22:41.732Z,66.08
2019-05-07T00:23:20.124Z,66.75
2019-05-07T00:24:02.221Z,67.03
2019-05-07T00:24:42.576Z,67.41
2019-05-07T00:25:22.810Z,67.41
2019-05-07T00:26:02.429Z,67.8
2019-05-07T00:26:43.253Z,67.8
2019-05-07T00:27:23.505Z,68.65
2019-05-07T00:28:04.082Z,68.56
2019-05-07T00:28:44.661Z,68.46
2019-05-07T00:29:25.220Z,68.84
2019-05-07T00:30:05.810Z,69.42
2019-05-07T00:30:46.365Z,69.79
2019-05-07T00:31:26.936Z,70.27
2019-05-07T00:32:07.501Z,69.89
2019-05-07T00:32:48.060Z,70.37
2019-05-07T00:33:28.651Z,70.56
2019-05-07T00:34:09.187Z,70.94
2019-05-07T00:34:49.731Z,70.84
2019-05-07T00:35:32.203Z,70.84
2019-05-07T00:36:12.373Z,71.03
2019-05-07T00:36:52.481Z,71.22
2019-05-07T00:37:32.311Z,71.13
2019-05-07T00:38:12.927Z,71.22
2019-05-07T00:38:53.116Z,71.42
2019-05-07T00:39:33.681Z,71.8
2019-05-07T00:40:14.259Z,72.14
2019-05-07T00:40:54.822Z,72.17
2019-05-07T00:41:35.376Z,72.14
2019-05-07T00:42:15.943Z,72.56
2019-05-07T00:42:56.527Z,72.08
2019-05-07T00:43:37.090Z,72.52
2019-05-07T00:44:17.674Z,72.33
2019-05-07T00:45:12.527Z,72.05
2019-05-07T00:45:38.810Z,72.71
2019-05-07T00:46:19.386Z,72.81
2019-05-07T00:47:02.008Z,72.71
2019-05-07T00:47:42.357Z,72.9
2019-05-07T00:48:23.190Z,72.9
2019-05-07T00:49:02.352Z,72.71
2019-05-07T00:49:42.601Z,73
2019-05-07T00:50:22.756Z,72.81
2019-05-07T00:51:03.316Z,73
2019-05-07T00:51:43.889Z,73.19
2019-05-07T00:52:24.453Z,73.19
2019-05-07T00:53:05.001Z,73.47
2019-05-07T00:53:45.578Z,73.57
2019-05-07T00:54:26.135Z,73.66
2019-05-07T00:55:06.704Z,73.47
2019-05-07T00:55:47.265Z,73.95
2019-05-07T00:56:27.838Z,73.85
2019-05-07T00:57:08.391Z,74.04
2019-05-07T00:57:48.974Z,73.57
2019-05-07T00:58:30.132Z,74.24
2019-05-07T00:59:10.098Z,74.52
2019-05-07T00:59:52.443Z,74.62
2019-05-07T01:00:33.196Z,74.52
2019-05-07T01:01:13.027Z,74.33
2019-05-07T01:01:52.871Z,74.43
2019-05-07T01:02:32.967Z,74.71
2019-05-07T01:03:13.521Z,74.8
2019-05-07T01:03:54.097Z,74.9
2019-05-07T01:04:34.666Z,74.71
2019-05-07T01:05:15.220Z,74.71
2019-05-07T01:05:55.772Z,74.62
2019-05-07T01:06:36.361Z,74.62
2019-05-07T01:07:16.916Z,74.62
2019-05-07T01:07:57.470Z,74.9
2019-05-07T01:08:38.014Z,75.19
2019-05-07T01:09:18.574Z,74.99
2019-05-07T01:09:59.122Z,75.57
2019-05-07T01:10:41.402Z,75.28
2019-05-07T01:11:22.398Z,75.19
2019-05-07T01:12:02.857Z,75.19
2019-05-07T01:12:42.271Z,75.09
2019-05-07T01:13:23.328Z,75.57
2019-05-07T01:14:02.873Z,75.57
2019-05-07T01:14:43.251Z,75.95
2019-05-07T01:15:30.608Z,76.23
2019-05-07T01:16:04.405Z,76.14
2019-05-07T01:16:44.974Z,76.42
2019-05-07T01:17:25.535Z,76.14
2019-05-07T01:18:06.093Z,76.23
2019-05-07T01:18:46.634Z,76.61
2019-05-07T01:19:27.209Z,77
2019-05-07T01:20:07.775Z,77
2019-05-07T01:20:48.329Z,76.81
2019-05-07T01:21:28.893Z,76.9
2019-05-07T01:22:09.456Z,77
2019-05-07T01:22:50.039Z,76.9
2019-05-07T01:23:32.201Z,76.9
2019-05-07T01:24:12.301Z,76.9
2019-05-07T01:24:52.410Z,76.52
2019-05-07T01:25:32.913Z,76.9
2019-05-07T01:26:12.865Z,76.9
2019-05-07T01:26:53.425Z,77
2019-05-07T01:27:33.995Z,77
2019-05-07T01:28:14.571Z,76.81
2019-05-07T01:28:55.121Z,77.56
2019-05-07T01:29:35.686Z,77.19
2019-05-07T01:30:16.247Z,77.28
2019-05-07T01:30:56.809Z,77.09
2019-05-07T01:31:37.353Z,77.95
2019-05-07T01:32:17.912Z,77.56
2019-05-07T01:32:58.476Z,78.04
2019-05-07T01:33:39.028Z,77.76
2019-05-07T01:34:19.589Z,77.76
2019-05-07T01:35:02.231Z,77.95
2019-05-07T01:35:42.320Z,78.23
2019-05-07T01:36:22.577Z,78.04
2019-05-07T01:37:02.650Z,77.95
2019-05-07T01:37:42.394Z,77.95
2019-05-07T01:38:23.068Z,77.95
2019-05-07T01:39:03.524Z,78.14
2019-05-07T01:39:44.073Z,78.23
2019-05-07T01:40:24.637Z,78.23
2019-05-07T01:41:05.194Z,78.04
2019-05-07T01:41:45.750Z,78.42
2019-05-07T01:42:26.306Z,78.42
2019-05-07T01:43:06.860Z,78.61
2019-05-07T01:43:47.419Z,78.71
2019-05-07T01:44:28.017Z,78.77
2019-05-07T01:45:08.584Z,79.05
2019-05-07T01:45:49.987Z,79.14
2019-05-07T01:46:29.743Z,78.9
2019-05-07T01:47:10.283Z,78.71
2019-05-07T01:47:52.885Z,79.09
2019-05-07T01:48:32.313Z,79.09
2019-05-07T01:49:12.481Z,79.09
2019-05-07T01:49:55.042Z,79.14
2019-05-07T01:50:33.104Z,78.99
2019-05-07T01:51:13.666Z,78.99
2019-05-07T01:51:54.226Z,79.14
2019-05-07T01:52:34.793Z,78.9
2019-05-07T01:53:15.345Z,79.14
2019-05-07T01:53:55.951Z,79.05
2019-05-07T01:54:36.521Z,78.86
2019-05-07T01:55:17.062Z,78.99
2019-05-07T01:55:57.637Z,79.14
2019-05-07T01:56:38.219Z,79.14
2019-05-07T01:57:18.826Z,79.19
2019-05-07T01:57:59.407Z,79.33
2019-05-07T01:58:42.245Z,79.24
2019-05-07T01:59:22.442Z,79.14
2019-05-07T02:00:02.528Z,79.24
2019-05-07T02:00:42.373Z,78.96
2019-05-07T02:01:22.299Z,78.96
2019-05-07T02:02:03.074Z,78.86
2019-05-07T02:02:43.430Z,79.24
2019-05-07T02:03:23.993Z,79.05
2019-05-07T02:04:04.577Z,79.33
2019-05-07T02:04:45.149Z,79.33
2019-05-07T02:05:25.733Z,79.05
2019-05-07T02:06:06.312Z,79.52
2019-05-07T02:06:46.942Z,79.14
2019-05-07T02:07:27.529Z,79.81
2019-05-07T02:08:08.113Z,79.72
2019-05-07T02:08:48.668Z,79.43
2019-05-07T02:09:29.225Z,79.62
2019-05-07T02:10:11.850Z,79.62
2019-05-07T02:13:09.104Z,79.72
2019-05-07T02:13:49.661Z,79.81
2019-05-07T02:14:30.231Z,79.43
2019-05-07T02:15:11.937Z,79.62
2019-05-07T02:15:58.329Z,79.52
2019-05-07T02:16:32.622Z,79.52
2019-05-07T02:17:13.580Z,79.81
2019-05-07T02:17:53.060Z,79.62
2019-05-07T02:18:33.610Z,79.33
2019-05-07T02:19:14.183Z,79.81
2019-05-07T02:19:54.734Z,79.94
2019-05-07T02:20:35.327Z,79.91
2019-05-07T02:21:15.875Z,79.91
2019-05-07T02:21:56.431Z,79.62
2019-05-07T02:22:37.028Z,79.43
2019-05-07T02:23:17.578Z,79.43
2019-05-07T02:23:58.120Z,79.72
2019-05-07T02:24:40.504Z,79.24
2019-05-07T02:25:22.098Z,79.43
2019-05-07T02:26:02.375Z,79.43
2019-05-07T02:26:42.659Z,79.52
2019-05-07T02:27:22.755Z,79.81
2019-05-07T02:28:03.308Z,79.85
2019-05-07T02:28:43.867Z,79.33
2019-05-07T02:29:24.435Z,79.43
2019-05-07T02:30:04.999Z,79.33
2019-05-07T02:30:45.530Z,79.14
2019-05-07T02:31:26.109Z,78.86
2019-05-07T02:32:06.688Z,78.67
2019-05-07T02:32:47.349Z,79.05
2019-05-07T02:33:27.884Z,78.48
2019-05-07T02:34:08.464Z,79.05
2019-05-07T02:34:49.068Z,79.14
2019-05-07T02:35:29.628Z,78.86
2019-05-07T02:36:13.887Z,79.05
2019-05-07T02:36:53.734Z,79.38
2019-05-07T02:37:41.619Z,78.96
2019-05-07T02:38:13.673Z,79.14
2019-05-07T02:38:53.154Z,79.52
2019-05-07T02:39:33.405Z,79.62
2019-05-07T02:40:14.232Z,79.28
2019-05-07T02:40:54.218Z,79.43
2019-05-07T02:41:34.814Z,79.72
2019-05-07T02:42:15.415Z,79.14
2019-05-07T02:42:55.992Z,79.33
2019-05-07T02:43:36.564Z,78.96
2019-05-07T02:44:17.140Z,79.62
2019-05-07T02:44:57.727Z,79.75
2019-05-07T02:45:38.291Z,79.81
2019-05-07T02:46:27.235Z,79.43
2019-05-07T02:46:59.448Z,79.81
2019-05-07T02:47:40.026Z,79.72
2019-05-07T02:48:23.500Z,79.62
2019-05-07T02:49:03.126Z,79.33
2019-05-07T02:49:43.804Z,79.62
2019-05-07T02:50:22.820Z,79.33
2019-05-07T02:51:04.071Z,79.43
2019-05-07T02:51:43.839Z,79.81
2019-05-07T02:52:23.962Z,79.81
2019-05-07T02:53:04.558Z,79.72
2019-05-07T02:53:45.129Z,79.62
2019-05-07T02:54:25.697Z,79.81
2019-05-07T02:55:06.251Z,79.91
2019-05-07T02:55:46.811Z,79.81
2019-05-07T02:56:27.379Z,79.52
2019-05-07T02:57:07.946Z,79.52
2019-05-07T02:57:48.517Z,79.33
2019-05-07T02:58:29.061Z,79.52
2019-05-07T02:59:09.671Z,79.81
2019-05-07T02:59:50.221Z,79.52
2019-05-07T03:00:33.319Z,80.29
2019-05-07T03:01:13.716Z,80
2019-05-07T03:01:53.655Z,80.29
2019-05-07T03:02:33.174Z,80.29
2019-05-07T03:03:13.908Z,80.47
2019-05-07T03:03:53.632Z,80.47
2019-05-07T03:04:34.189Z,80.47
2019-05-07T03:05:14.751Z,80.38
2019-05-07T03:05:55.319Z,80.38
2019-05-07T03:06:35.897Z,80.47
2019-05-07T03:07:16.457Z,80.29
2019-05-07T03:07:57.098Z,80.57
2019-05-07T03:08:37.682Z,80.19
2019-05-07T03:09:18.276Z,80.76
2019-05-07T03:09:58.829Z,81.14
2019-05-07T03:10:39.423Z,80.95
2019-05-07T03:11:22.753Z,81.14
2019-05-07T03:12:03.722Z,80.76
2019-05-07T03:12:42.950Z,81.05
2019-05-07T03:13:23.504Z,81.14
2019-05-07T03:14:03.137Z,81.05
2019-05-07T03:14:43.748Z,81.24
2019-05-07T03:15:24.132Z,80.95
2019-05-07T03:16:04.082Z,81.14
2019-05-07T03:16:49.113Z,81.14
2019-05-07T03:17:25.126Z,81.14
2019-05-07T03:18:05.717Z,80.95
2019-05-07T03:18:46.285Z,81.62
2019-05-07T03:19:26.835Z,81.14
2019-05-07T03:20:07.380Z,81.05
2019-05-07T03:20:47.937Z,81.14
2019-05-07T03:21:28.501Z,81.05
2019-05-07T03:22:09.074Z,81.14
2019-05-07T03:22:49.629Z,81.71
2019-05-07T03:23:30.164Z,81.62
2019-05-07T03:24:13.790Z,81.33
2019-05-07T03:24:52.904Z,81.71
2019-05-07T03:25:33.784Z,81.62
2019-05-07T03:26:13.576Z,81.81
2019-05-07T03:26:53.632Z,81.71
2019-05-07T03:27:34.244Z,81.71
2019-05-07T03:28:14.147Z,81.43
2019-05-07T03:28:54.700Z,81.62
2019-05-07T03:29:35.249Z,81.62
2019-05-07T03:30:16.979Z,81.52
2019-05-07T03:30:57.166Z,81.62
2019-05-07T03:31:37.039Z,81.62
2019-05-07T03:32:17.488Z,81.62
2019-05-07T03:32:58.046Z,81.62
2019-05-07T03:33:38.606Z,81.62
2019-05-07T03:34:19.163Z,81.71
2019-05-07T03:35:05.836Z,81.52
2019-05-07T03:35:45.768Z,81.81
2019-05-07T03:36:25.770Z,81.43
2019-05-07T03:37:05.938Z,82
2019-05-07T03:37:44.070Z,81.62
2019-05-07T03:38:22.955Z,81.33
2019-05-07T03:39:03.468Z,81.14
2019-05-07T03:39:43.658Z,81.33
2019-05-07T03:40:24.204Z,81.43
2019-05-07T03:41:04.765Z,81.81
2019-05-07T03:41:45.307Z,81.24
2019-05-07T03:42:25.870Z,81.05
2019-05-07T03:43:06.647Z,81.24
2019-05-07T03:43:47.011Z,81.24
2019-05-07T03:44:27.580Z,81.24
2019-05-07T03:45:08.155Z,81.81
2019-05-07T03:45:48.718Z,81.71
2019-05-07T03:46:29.315Z,81.52
2019-05-07T03:47:09.864Z,81.43
2019-05-07T03:47:53.892Z,81.52
2019-05-07T03:48:33.207Z,81.81
2019-05-07T03:49:13.659Z,81.62
2019-05-07T03:49:53.465Z,81.62
2019-05-07T03:50:33.753Z,81.81
2019-05-07T03:51:13.388Z,81.71
2019-05-07T03:51:53.891Z,81.52
2019-05-07T03:52:34.486Z,81.62
2019-05-07T03:53:15.097Z,81.33
2019-05-07T03:53:55.661Z,81.81
2019-05-07T03:54:36.212Z,81.52
2019-05-07T03:55:16.774Z,81.62
2019-05-07T03:55:57.350Z,81.52
2019-05-07T03:56:37.919Z,81.43
2019-05-07T03:57:18.477Z,81.81
2019-05-07T03:57:59.051Z,81.43
2019-05-07T03:58:39.644Z,81.81
2019-05-07T03:59:22.818Z,81.14
2019-05-07T04:00:04.074Z,81.24
2019-05-07T04:00:44.150Z,80.95
2019-05-07T04:01:23.929Z,80.95
2019-05-07T04:02:03.270Z,81.14
2019-05-07T04:02:43.869Z,80.95
2019-05-07T04:03:24.700Z,81.14
2019-05-07T04:04:04.147Z,81.33
2019-05-07T04:04:44.735Z,81.14
2019-05-07T04:05:25.288Z,80.95
2019-05-07T04:06:05.866Z,81.24
2019-05-07T04:06:46.427Z,81.14
2019-05-07T04:07:26.984Z,80.95
2019-05-07T04:08:07.564Z,81.14
2019-05-07T04:08:48.108Z,81.14
2019-05-07T04:09:28.650Z,80.76
2019-05-07T04:10:10.107Z,80.95
2019-05-07T04:10:49.750Z,80.47
2019-05-07T04:11:33.527Z,80.76
2019-05-07T04:12:13.089Z,80.19
2019-05-07T04:12:53.260Z,80.57
2019-05-07T04:13:33.318Z,80.29
2019-05-07T04:14:13.594Z,80.29
2019-05-07T04:14:53.709Z,80.57
2019-05-07T04:15:33.811Z,80.47
2019-05-07T04:16:14.367Z,80.66
2019-05-07T04:17:04.693Z,80.66
2019-05-07T04:17:35.471Z,80.29
2019-05-07T04:18:16.023Z,80.47
2019-05-07T04:18:56.613Z,80.29
2019-05-07T04:19:37.168Z,80.38
2019-05-07T04:20:17.743Z,80.57
2019-05-07T04:20:58.308Z,80.66
2019-05-07T04:21:38.857Z,80.47
2019-05-07T04:22:19.435Z,80.95
2019-05-07T04:22:59.981Z,81.14
2019-05-07T04:23:43.261Z,81.14
2019-05-07T04:24:23.471Z,80.29
2019-05-07T04:25:04.304Z,80.57
2019-05-07T04:25:43.466Z,80.76
2019-05-07T04:26:23.290Z,80.57
2019-05-07T04:27:03.774Z,80.86
2019-05-07T04:27:46.825Z,80.29
2019-05-07T04:28:24.494Z,80.66
2019-05-07T04:29:06.119Z,80.76
2019-05-07T04:29:45.610Z,80.29
2019-05-07T04:30:26.179Z,80.19
2019-05-07T04:31:06.732Z,80.66
2019-05-07T04:31:47.316Z,80.66
2019-05-07T04:32:27.865Z,80.19
2019-05-07T04:33:08.424Z,80.38
2019-05-07T04:33:48.989Z,80.66
2019-05-07T04:34:29.550Z,80.29
2019-05-07T04:35:12.512Z,81.14
2019-05-07T04:35:53.512Z,80.76
2019-05-07T04:36:34.063Z,80.95
2019-05-07T04:37:13.133Z,80.95
2019-05-07T04:37:53.277Z,80.95
2019-05-07T04:38:33.503Z,81.24
2019-05-07T04:39:13.601Z,80.47
2019-05-07T04:39:54.193Z,80.47
2019-05-07T04:40:34.590Z,81.14
2019-05-07T04:41:15.145Z,80.33
2019-05-07T04:41:55.722Z,80.19
2019-05-07T04:42:36.273Z,81.14
2019-05-07T04:43:16.819Z,82.14
2019-05-07T04:43:57.374Z,82.61
2019-05-07T04:44:37.931Z,82.61
2019-05-07T04:45:18.538Z,82.84
2019-05-07T04:45:59.081Z,82.27
2019-05-07T04:46:43.509Z,80.08
2019-05-07T04:47:34.221Z,78.75
2019-05-07T04:48:03.018Z,77.89
2019-05-07T04:48:43.773Z,78.27
2019-05-07T04:49:23.776Z,78.37
2019-05-07T04:50:03.705Z,79.22
2019-05-07T04:50:47.299Z,79.17
2019-05-07T04:51:23.701Z,78.69
2019-05-07T04:52:04.313Z,77.17
2019-05-07T04:52:44.812Z,77.07
2019-05-07T04:53:25.364Z,76.79
2019-05-07T04:54:05.966Z,76.79
2019-05-07T04:54:46.473Z,75.84
2019-05-07T04:55:27.035Z,74.98
2019-05-07T04:56:07.607Z,74.12
2019-05-07T04:56:48.255Z,73.26
2019-05-07T04:57:28.789Z,73.55
2019-05-07T04:58:09.463Z,73.65
2019-05-07T04:58:52.796Z,72.12
2019-05-07T04:59:32.778Z,72.6
2019-05-07T05:00:13.352Z,73.07
2019-05-07T05:00:53.714Z,74.6
2019-05-07T05:01:32.840Z,76.03
2019-05-07T05:02:13.445Z,75.45
2019-05-07T05:02:53.371Z,75.74
2019-05-07T05:03:34.757Z,74.21
2019-05-07T05:04:24.737Z,73.83
2019-05-07T05:04:55.044Z,73.39
2019-05-07T05:05:35.778Z,72.44
2019-05-07T05:06:16.249Z,72.44
2019-05-07T05:06:56.813Z,73.21
2019-05-07T05:07:37.383Z,73.11
2019-05-07T05:08:17.953Z,73.96
2019-05-07T05:08:58.519Z,73.58
2019-05-07T05:09:39.053Z,72.72
2019-05-07T05:10:19.618Z,71.87
2019-05-07T05:11:02.893Z,72.16
2019-05-07T05:11:43.553Z,72.34
2019-05-07T05:12:22.942Z,72.53
2019-05-07T05:13:03.128Z,72.92
2019-05-07T05:13:44.301Z,72.82
2019-05-07T05:14:23.309Z,72.34
2019-05-07T05:15:03.874Z,71.77
2019-05-07T05:15:44.479Z,71.48
2019-05-07T05:16:25.052Z,71.58
2019-05-07T05:17:05.686Z,70.72
2019-05-07T05:17:50.595Z,69.39
2019-05-07T05:18:26.829Z,68.91
2019-05-07T05:19:07.410Z,68.91
2019-05-07T05:19:47.994Z,69.2
2019-05-07T05:20:28.590Z,70.15
2019-05-07T05:21:09.150Z,71.01
2019-05-07T05:21:49.718Z,71.96
2019-05-07T05:22:31.725Z,71.77
2019-05-07T05:23:12.074Z,71.3
2019-05-07T05:23:52.306Z,71.3
2019-05-07T05:24:32.904Z,71.72
2019-05-07T05:25:12.598Z,71.04
2019-05-07T05:25:53.208Z,70.95
2019-05-07T05:26:33.766Z,69.04
2019-05-07T05:27:14.361Z,68.95
2019-05-07T05:27:54.972Z,68.57
2019-05-07T05:28:35.556Z,69.14
2019-05-07T05:29:16.110Z,69.62
2019-05-07T05:29:56.663Z,70.28
2019-05-07T05:30:37.236Z,69.43
2019-05-07T05:31:17.828Z,69.33
2019-05-07T05:31:58.388Z,69.14
2019-05-07T05:32:38.951Z,68.85
2019-05-07T05:33:19.517Z,68.7
2019-05-07T05:34:02.118Z,67.93
2019-05-07T05:34:42.509Z,66.41
2019-05-07T05:35:22.172Z,65.99
2019-05-07T05:36:03.017Z,65.99
2019-05-07T05:36:42.713Z,65.7
2019-05-07T05:37:23.048Z,66.18
2019-05-07T05:38:03.631Z,66.18
2019-05-07T05:38:44.203Z,66.24
2019-05-07T05:39:24.763Z,66.38
2019-05-07T05:40:08.789Z,67.2
2019-05-07T05:40:45.902Z,67.39
2019-05-07T05:41:26.454Z,67.77
2019-05-07T05:42:07.028Z,68.53
2019-05-07T05:42:47.702Z,68.63
2019-05-07T05:43:28.252Z,68.91
2019-05-07T05:44:08.831Z,69.39
2019-05-07T05:44:51.993Z,69.07
2019-05-07T05:45:33.333Z,69.83
2019-05-07T05:46:12.442Z,69.64
2019-05-07T05:46:53.002Z,70.21
2019-05-07T05:47:33.663Z,69.83
2019-05-07T05:48:14.332Z,70.59
2019-05-07T05:48:55.039Z,70.88
2019-05-07T05:49:35.631Z,71.07
2019-05-07T05:50:16.202Z,71.45
2019-05-07T05:50:56.786Z,71.45
2019-05-07T05:51:37.353Z,71.26
2019-05-07T05:54:36.592Z,70.12
2019-05-07T05:55:17.453Z,69.54
2019-05-07T05:55:58.055Z,69.74
2019-05-07T05:56:39.619Z,69.35
2019-05-07T05:57:22.749Z,70.21
2019-05-07T05:58:02.664Z,69.74
2019-05-07T05:58:43.069Z,69.45
2019-05-07T05:59:27.350Z,69.64
2019-05-07T06:00:03.827Z,69.83
2019-05-07T06:00:44.498Z,70.12
2019-05-07T06:01:25.713Z,70.12
2019-05-07T06:02:06.831Z,70.02
2019-05-07T06:02:47.571Z,70.21
2019-05-07T06:03:28.489Z,69.45
2019-05-07T06:04:09.422Z,69.83
2019-05-07T06:04:52.565Z,69.35
2019-05-07T06:05:34.214Z,68.78
2019-05-07T06:06:12.841Z,68.78
2019-05-07T06:07:07.085Z,67.93
2019-05-07T06:07:33.986Z,67.74
2019-05-07T06:08:17.350Z,67.55
2019-05-07T06:08:55.903Z,67.45
2019-05-07T06:09:36.734Z,67.45
2019-05-07T06:10:17.426Z,67.64
2019-05-07T06:10:58.313Z,67.64
2019-05-07T06:11:38.896Z,67.74
2019-05-07T06:12:19.530Z,67.35
2019-05-07T06:13:01.751Z,67.16
2019-05-07T06:13:41.915Z,67.16
2019-05-07T06:14:22.252Z,66.78
2019-05-07T06:15:02.341Z,67.26
2019-05-07T06:15:43.260Z,67.35
2019-05-07T06:16:24.236Z,66.78
2019-05-07T06:17:05.363Z,66.88
2019-05-07T06:17:47.207Z,66.69
2019-05-07T06:18:28.843Z,67.16
2019-05-07T06:19:09.429Z,67.45
2019-05-07T06:19:51.842Z,66.94
2019-05-07T06:20:32.050Z,67.13
2019-05-07T06:21:12.542Z,67.13
2019-05-07T06:21:52.643Z,67.8
2019-05-07T06:22:33.105Z,68.37
2019-05-07T06:23:13.372Z,68.69
2019-05-07T06:23:54.271Z,68.78
2019-05-07T06:24:35.012Z,68.78
2019-05-07T06:25:15.710Z,68.63
2019-05-07T06:25:56.278Z,67.29
2019-05-07T06:26:36.900Z,66.53
2019-05-07T06:27:17.673Z,66.34
2019-05-07T06:27:58.238Z,66.53
2019-05-07T06:28:38.826Z,65.99
2019-05-07T06:29:20.105Z,66.18
2019-05-07T06:30:02.864Z,66.18
2019-05-07T06:30:41.781Z,65.61
2019-05-07T06:31:22.115Z,65.17
2019-05-07T06:32:02.598Z,64.4
2019-05-07T06:32:43.040Z,63.16
2019-05-07T06:33:23.239Z,62.59
2019-05-07T06:34:03.910Z,62.52
2019-05-07T06:34:44.844Z,62.34
2019-05-07T06:35:25.233Z,61.57
2019-05-07T06:36:05.907Z,60.93
2019-05-07T06:36:46.516Z,60.36
2019-05-07T06:37:27.177Z,60.36
2019-05-07T06:38:08.005Z,59.31
2019-05-07T06:38:48.959Z,59.02
2019-05-07T06:39:30.079Z,58
2019-05-07T06:40:12.113Z,57.62
2019-05-07T06:40:52.054Z,56.67
2019-05-07T06:41:32.904Z,56.38
2019-05-07T06:42:14.410Z,55.13
2019-05-07T06:42:55.535Z,54.66
2019-05-07T06:43:36.559Z,54.47
2019-05-07T06:44:17.559Z,54.53
2019-05-07T06:44:58.594Z,54.91
2019-05-07T06:45:39.478Z,56.25
2019-05-07T06:46:20.023Z,57.02
2019-05-07T06:47:02.414Z,57.87
2019-05-07T06:47:42.447Z,58.26
2019-05-07T06:48:37.521Z,58.26
2019-05-07T06:49:03.521Z,57.87
2019-05-07T06:49:44.268Z,57.81
2019-05-07T06:50:25.062Z,57.9
2019-05-07T06:51:06.024Z,57.53
2019-05-07T06:51:47.824Z,57.14
2019-05-07T06:52:27.511Z,56.31
2019-05-07T06:53:08.088Z,55.74
2019-05-07T06:53:48.811Z,54.68
2019-05-07T06:54:31.870Z,53.25
2019-05-07T06:55:12.153Z,52.1
2019-05-07T06:55:52.162Z,52.29
2019-05-07T06:56:32.726Z,52.01
2019-05-07T06:57:13.553Z,52.29
2019-05-07T06:57:54.592Z,52.26
2019-05-07T06:58:35.823Z,52.46
2019-05-07T06:59:17.008Z,53.03
2019-05-07T06:59:58.233Z,53.22
2019-05-07T07:00:39.305Z,53.51
2019-05-07T07:01:22.561Z,53.77
2019-05-07T07:02:02.324Z,54.53
2019-05-07T07:02:42.082Z,53.2
2019-05-07T07:03:23.136Z,52.15
2019-05-07T07:04:04.333Z,51.93
2019-05-07T07:04:44.935Z,52.15
2019-05-07T07:05:26.056Z,52.72
2019-05-07T07:06:06.985Z,53.39
2019-05-07T07:06:48.135Z,53.1
2019-05-07T07:07:33.733Z,53.29
2019-05-07T07:08:12.253Z,53.49
2019-05-07T07:08:52.572Z,52.91
2019-05-07T07:09:32.881Z,51.98
2019-05-07T07:10:12.091Z,51.98
2019-05-07T07:10:52.386Z,51.89
2019-05-07T07:11:32.993Z,52.26
2019-05-07T07:12:13.552Z,51.31
2019-05-07T07:12:54.171Z,51.15
2019-05-07T07:13:34.892Z,50.76
2019-05-07T07:14:15.496Z,49.71
2019-05-07T07:14:58.057Z,49.43
2019-05-07T07:15:36.702Z,50
2019-05-07T07:16:17.284Z,50.02
2019-05-07T07:16:57.849Z,49.84
2019-05-07T07:17:38.466Z,49.35
2019-05-07T07:18:19.053Z,49.07
2019-05-07T07:18:59.629Z,49.35
2019-05-07T07:19:40.207Z,49.26
2019-05-07T07:20:21.817Z,49.35
2019-05-07T07:21:02.116Z,48.13
2019-05-07T07:21:42.206Z,47.27
2019-05-07T07:22:22.490Z,47.37
2019-05-07T07:23:03.119Z,46.61
2019-05-07T07:23:43.745Z,46.41
2019-05-07T07:24:24.340Z,46.53
2019-05-07T07:25:06.638Z,46.34
2019-05-07T07:25:45.766Z,45.48
2019-05-07T07:26:26.338Z,45.67
2019-05-07T07:27:06.895Z,45.57
2019-05-07T07:27:47.504Z,44.23
2019-05-07T07:28:28.135Z,42.8
2019-05-07T07:29:08.897Z,42.3
2019-05-07T07:29:52.684Z,42.3
2019-05-07T07:30:33.270Z,42.56
2019-05-07T07:31:13.852Z,43.43
2019-05-07T07:31:54.455Z,43.4
2019-05-07T07:32:35.049Z,44.45
2019-05-07T07:33:15.610Z,45.6
2019-05-07T07:33:56.178Z,46.1
2019-05-07T07:34:36.780Z,46.1
2019-05-07T07:35:17.405Z,44.86
2019-05-07T07:35:58.013Z,44.67
2019-05-07T07:36:38.596Z,44.48
2019-05-07T07:37:19.196Z,41.89
2019-05-07T07:37:59.782Z,41.51
2019-05-07T07:38:42.042Z,42.18
2019-05-07T07:39:22.022Z,42.08
2019-05-07T07:40:02.052Z,42.94
2019-05-07T07:40:42.295Z,42.56
2019-05-07T07:41:22.707Z,42.94
2019-05-07T07:42:03.279Z,43.52
2019-05-07T07:42:43.881Z,43.23
2019-05-07T07:43:24.468Z,43.16
2019-05-07T07:44:05.035Z,42.87
2019-05-07T07:44:45.614Z,40.48
2019-05-07T07:45:26.226Z,40.67
2019-05-07T07:46:06.811Z,40.58
2019-05-07T07:46:47.409Z,39.52
2019-05-07T07:47:28.042Z,38.85
2019-05-07T07:48:08.661Z,39.23
2019-05-07T07:49:02.540Z,40.09
2019-05-07T07:49:29.848Z,40.58
2019-05-07T07:50:12.750Z,40.86
2019-05-07T07:50:52.414Z,41.44
2019-05-07T07:51:38.581Z,41.74
2019-05-07T07:52:12.352Z,41.36
2019-05-07T07:52:53.108Z,41.74
2019-05-07T07:53:35.451Z,41.55
2019-05-07T07:54:13.978Z,41.65
2019-05-07T07:54:54.699Z,41.07
2019-05-07T07:55:35.280Z,40.98
2019-05-07T07:56:15.843Z,41.07
2019-05-07T07:56:56.824Z,39.64
2019-05-07T07:57:37.018Z,39.92
2019-05-07T07:58:17.581Z,40.02
2019-05-07T07:58:58.156Z,40.69
2019-05-07T07:59:38.748Z,40.59
2019-05-07T08:00:19.341Z,38.39
2019-05-07T08:00:59.908Z,36.46
2019-05-07T08:01:42.086Z,36.36
2019-05-07T08:02:22.929Z,36.94
2019-05-07T08:03:02.291Z,37.3
2019-05-07T08:03:42.313Z,38.17
2019-05-07T08:04:22.988Z,38.93
2019-05-07T08:05:03.496Z,38.17
2019-05-07T08:05:44.062Z,38.26
2019-05-07T08:06:24.613Z,39.69
2019-05-07T08:07:05.211Z,40.46
2019-05-07T08:07:45.796Z,40.84
2019-05-07T08:08:26.400Z,41.7
2019-05-07T08:09:06.961Z,41.15
2019-05-07T08:09:47.554Z,41.63
2019-05-07T08:10:28.125Z,41.44
2019-05-07T08:11:08.729Z,41.24
2019-05-07T08:11:49.300Z,40.98
2019-05-07T08:12:29.855Z,40.78
2019-05-07T08:13:12.234Z,40.59
2019-05-07T08:13:52.854Z,40.12
2019-05-07T08:14:32.438Z,39.52
2019-05-07T08:15:17.856Z,39.62
2019-05-07T08:15:53.045Z,39.04
2019-05-07T08:16:33.623Z,38.18
2019-05-07T08:17:14.210Z,38.17
2019-05-07T08:17:54.805Z,39.22
2019-05-07T08:18:35.383Z,39.6
2019-05-07T08:19:21.464Z,40.84
2019-05-07T08:19:56.547Z,41.13
2019-05-07T08:20:37.149Z,41.13
2019-05-07T08:21:17.738Z,40.67
2019-05-07T08:21:58.351Z,40.58
2019-05-07T08:22:38.938Z,39.81
2019-05-07T08:23:19.498Z,39.43
2019-05-07T08:24:00.071Z,38.28
2019-05-07T08:24:42.695Z,37.23
2019-05-07T08:25:22.880Z,37.9
2019-05-07T08:26:03.493Z,38.59
2019-05-07T08:26:44.067Z,38.59
2019-05-07T08:27:24.681Z,38.59
2019-05-07T08:28:05.268Z,38.49
2019-05-07T08:28:45.861Z,38.96
2019-05-07T08:29:26.464Z,38.87
2019-05-07T08:30:07.012Z,38.68
2019-05-07T08:30:47.576Z,38.78
2019-05-07T08:31:28.140Z,38.78
2019-05-07T08:32:08.722Z,38.49
2019-05-07T08:32:49.311Z,38.39
2019-05-07T08:33:31.991Z,38.18
2019-05-07T08:34:13.870Z,38.47
2019-05-07T08:34:52.128Z,38.56
2019-05-07T08:35:32.641Z,38.85
2019-05-07T08:36:14.701Z,38.64
2019-05-07T08:36:52.820Z,39.4
2019-05-07T08:37:33.239Z,39.89
2019-05-07T08:38:13.781Z,39.79
2019-05-07T08:38:54.365Z,39.5
2019-05-07T08:39:34.943Z,39.23
2019-05-07T08:40:15.525Z,39.33
2019-05-07T08:40:56.096Z,39.33
2019-05-07T08:41:36.662Z,39.33
2019-05-07T08:42:17.222Z,39.9
2019-05-07T08:42:57.786Z,39.16
2019-05-07T08:43:38.351Z,38.78
2019-05-07T08:44:18.986Z,38.78
2019-05-07T08:44:59.563Z,37.15
2019-05-07T08:45:40.082Z,37.53
2019-05-07T08:46:22.290Z,38.3
2019-05-07T08:47:02.675Z,38.59
2019-05-07T08:47:42.505Z,38.78
2019-05-07T08:48:22.346Z,38.59
2019-05-07T08:49:02.899Z,38.68
2019-05-07T08:49:43.697Z,38.1